Time;durP1;ratioP1;P1;durP2;ratioP2;P2;SDS_P1;SDS_P2;PMS_P1;PMS_P2;Temp;Humidity;BMP_temperature;BMP_pressure;BME280_temperature;BME280_humidity;BME280_pressure;Samples;Min_cycle;Max_cycle;Signal;HPM_P1;HPM_P2
2023/04/14 00:00:09;;;;;;;23.30;20.40;;;;;;;7.94;88.15;95705.71;109037;1271;97529;-90
2023/04/14 00:02:58;;;;;;;24.80;21.40;;;;;;;7.88;88.40;95708.20;109075;1274;22527;-90
2023/04/14 00:05:29;;;;;;;22.00;19.70;;;;;;;7.83;88.58;95707.42;109080;1274;24225;-90
2023/04/14 00:08:01;;;;;;;24.80;20.10;;;;;;;7.79;88.70;95707.84;109106;1268;24245;-90
2023/04/14 00:10:30;;;;;;;24.00;21.30;;;;;;;7.74;89.00;95703.87;109007;1274;49982;-91
2023/04/14 00:13:00;;;;;;;25.00;20.90;;;;;;;7.73;89.03;95706.09;109116;1274;22555;-90
2023/04/14 00:15:28;;;;;;;24.50;21.20;;;;;;;7.73;89.21;95706.25;109039;1266;22579;-90
2023/04/14 00:17:57;;;;;;;22.40;19.50;;;;;;;7.67;89.63;95703.02;109102;1274;22658;-91
2023/04/14 00:20:28;;;;;;;;;;;;;;;7.58;90.03;95702.37;108980;1268;102596;-91
2023/04/14 00:22:57;;;;;;;24.50;19.20;;;;;;;7.56;89.98;95700.76;109053;1275;23697;-90
2023/04/14 00:25:25;;;;;;;23.10;20.70;;;;;;;7.56;89.79;95696.54;109060;1274;22568;-90
2023/04/14 00:27:55;;;;;;;23.20;19.90;;;;;;;7.57;89.76;95694.67;109043;1274;22592;-89
2023/04/14 00:30:23;;;;;;;23.70;19.70;;;;;;;7.59;90.02;95690.55;108992;1269;110392;-90
2023/04/14 00:32:56;;;;;;;22.70;20.30;;;;;;;7.58;90.11;95688.44;109039;1275;22520;-90
2023/04/14 00:35:33;;;;;;;23.70;20.20;;;;;;;7.58;90.03;95699.36;109090;1269;24226;-89
2023/04/14 00:38:02;;;;;;;23.00;20.60;;;;;;;7.55;90.09;95696.96;109086;1274;22657;-91
2023/04/14 00:40:30;;;;;;;25.20;21.70;;;;;;;7.55;90.25;95693.22;109111;1270;33401;-90
2023/04/14 00:42:59;;;;;;;23.60;21.10;;;;;;;7.55;90.40;95693.42;109064;1274;25493;-91
2023/04/14 00:45:27;;;;;;;24.80;21.80;;;;;;;7.54;90.23;95689.45;109120;1253;22538;-90
2023/04/14 00:47:57;;;;;;;24.60;20.40;;;;;;;7.54;90.26;95687.60;109065;1271;23013;-90
2023/04/14 00:50:27;;;;;;;24.20;19.10;;;;;;;7.50;90.34;95683.48;108996;1267;120952;-90
2023/04/14 00:52:56;;;;;;;23.20;20.30;;;;;;;7.47;90.53;95688.64;109056;1275;22573;-90
2023/04/14 00:55:27;;;;;;;21.80;19.30;;;;;;;7.47;90.70;95681.41;109075;1274;22538;-90
2023/04/14 00:57:55;;;;;;;23.20;19.50;;;;;;;7.46;90.85;95679.14;109061;1274;22571;-90
2023/04/14 01:00:24;;;;;;;25.40;20.60;;;;;;;7.45;91.02;95679.45;109030;1267;74886;-90
2023/04/14 01:02:52;;;;;;;24.10;19.90;;;;;;;7.44;91.35;95673.51;109075;1271;22611;-89
2023/04/14 01:05:21;;;;;;;23.00;20.30;;;;;;;7.43;91.28;95669.36;109066;1268;23748;-90
2023/04/14 01:07:50;;;;;;;23.70;20.70;;;;;;;7.41;91.54;95664.42;109137;1267;22524;-90
2023/04/14 01:10:18;;;;;;;23.10;18.90;;;;;;;7.38;91.74;95661.73;108960;1267;118300;-90
2023/04/14 01:13:05;;;;;;;22.10;18.10;;;;;;;7.32;91.42;95657.67;109079;1268;22526;-90
2023/04/14 01:15:39;;;;;;;21.30;18.60;;;;;;;7.28;91.53;95656.23;109064;1271;22570;-90
2023/04/14 01:18:21;;;;;;;22.40;18.50;;;;;;;7.26;91.33;95655.04;109100;1268;25425;-90
2023/04/14 01:20:56;;;;;;;21.30;17.30;;;;;;;7.23;91.42;95648.65;109031;1271;25346;-90
2023/04/14 01:23:30;;;;;;;21.90;17.70;;;;;;;7.22;91.66;95651.04;109025;1275;24992;-91
2023/04/14 01:26:17;;;;;;;19.90;16.90;;;;;;;7.21;91.82;95654.64;109092;1274;22555;-89
2023/04/14 01:29:11;;;;;;;20.50;17.30;;;;;;;7.21;91.78;95650.89;109096;1274;43792;-90
2023/04/14 01:31:47;;;;;;;19.40;16.60;;;;;;;7.20;91.90;95649.64;109005;1268;25340;-90
2023/04/14 01:34:20;;;;;;;18.40;16.50;;;;;;;7.20;91.84;95642.63;109012;1267;22520;-90
2023/04/14 01:37:03;;;;;;;20.40;15.90;;;;;;;7.18;91.41;95640.11;109079;1272;23901;-90
2023/04/14 01:39:37;;;;;;;18.60;16.60;;;;;;;7.11;91.55;95641.85;109053;1274;75312;-90
2023/04/14 01:42:09;;;;;;;20.40;16.90;;;;;;;6.99;91.54;95641.93;109129;1268;25450;-90
2023/04/14 01:44:40;;;;;;;17.00;14.80;;;;;;;6.89;91.94;95644.55;109067;1268;22568;-89
2023/04/14 01:47:12;;;;;;;19.10;15.40;;;;;;;6.85;92.29;95640.80;109095;1267;22537;-90
2023/04/14 01:49:46;;;;;;;18.50;16.50;;;;;;;6.87;92.63;95641.04;107531;1263;2007087;-90
2023/04/14 01:52:16;;;;;;;20.00;15.60;;;;;;;6.89;92.66;95635.48;109012;1251;22507;-89
2023/04/14 01:54:55;;;;;;;;;;;;;;;6.90;92.79;95635.17;109082;1274;22510;-89
2023/04/14 01:57:26;;;;;;;15.50;13.80;;;;;;;6.90;92.78;95630.02;109061;1267;24004;-90
2023/04/14 01:59:59;;;;;;;17.70;14.40;;;;;;;6.92;92.84;95630.05;109022;1270;74643;-89
2023/04/14 02:02:30;;;;;;;17.90;15.90;;;;;;;6.93;92.67;95627.09;109051;1270;25423;-90
2023/04/14 02:05:01;;;;;;;17.00;15.20;;;;;;;6.94;92.56;95621.44;109096;1268;22532;-89
2023/04/14 02:07:31;;;;;;;17.20;15.10;;;;;;;6.90;92.70;95623.11;109099;1274;24005;-90
2023/04/14 02:10:02;;;;;;;19.40;15.80;;;;;;;6.87;93.05;95627.14;109024;1267;81318;-90
2023/04/14 02:12:38;;;;;;;18.40;16.40;;;;;;;6.89;92.97;95623.64;109115;1270;22733;-90
2023/04/14 02:15:12;;;;;;;19.10;16.50;;;;;;;6.92;93.25;95614.87;109078;1270;24764;-90
2023/04/14 02:17:43;;;;;;;18.80;16.10;;;;;;;6.97;93.30;95616.23;109023;1271;22556;-90
2023/04/14 02:20:14;;;;;;;19.00;15.50;;;;;;;7.02;93.21;95609.80;109012;1267;77461;-90
2023/04/14 02:22:45;;;;;;;17.50;14.80;;;;;;;7.04;93.12;95606.73;109085;1274;22603;-90
2023/04/14 02:25:13;;;;;;;18.70;14.40;;;;;;;7.04;93.13;95605.63;109091;1269;23850;-90
2023/04/14 02:27:52;;;;;;;16.90;13.80;;;;;;;7.03;93.19;95601.88;109065;1274;22529;-90
2023/04/14 02:30:30;;;;;;;16.20;12.90;;;;;;;7.02;93.37;95600.20;109016;1262;112479;-90
2023/04/14 02:33:04;;;;;;;17.00;13.30;;;;;;;7.03;93.57;95601.15;109059;1252;22531;-89
2023/04/14 02:35:39;;;;;;;17.40;14.50;;;;;;;7.04;93.88;95593.66;109068;1273;22571;-89
2023/04/14 02:38:13;;;;;;;18.30;13.80;;;;;;;7.05;93.63;95589.76;109042;1274;25249;-90
2023/04/14 02:40:48;;;;;;;15.60;13.80;;;;;;;7.07;93.43;95588.16;108982;1271;117169;-91
2023/04/14 02:43:24;;;;;;;18.50;14.40;;;;;;;7.08;93.75;95590.77;109053;1274;22535;-90
2023/04/14 02:45:56;;;;;;;17.70;13.70;;;;;;;7.10;94.04;95588.38;109033;1274;22568;-90
2023/04/14 02:48:28;;;;;;;15.90;11.30;;;;;;;7.12;94.11;95587.98;109036;1274;22550;-90
2023/04/14 02:50:58;;;;;;;14.10;11.60;;;;;;;7.13;94.08;95584.96;109045;1274;22550;-90
2023/04/14 02:53:27;;;;;;;16.80;12.30;;;;;;;7.14;94.10;95587.59;109057;1274;22516;-90
2023/04/14 02:55:57;;;;;;;20.80;16.30;;;;;;;7.16;94.49;95590.68;109041;1274;22593;-90
2023/04/14 02:58:27;;;;;;;18.00;15.60;;;;;;;7.07;94.10;95586.50;109092;1268;22830;-90
2023/04/14 03:00:58;;;;;;;18.90;14.90;;;;;;;6.99;94.45;95582.59;109042;1274;22526;-90
2023/04/14 03:03:28;;;;;;;20.90;15.10;;;;;;;7.00;94.83;95576.82;109003;1275;25293;-90
2023/04/14 03:05:56;;;;;;;16.40;14.00;;;;;;;7.03;95.04;95575.07;109104;1264;25267;-88
2023/04/14 03:08:27;;;;;;;22.10;16.60;;;;;;;7.06;95.34;95570.88;109053;1271;22535;-90
2023/04/14 03:10:56;;;;;;;20.40;15.40;;;;;;;7.08;95.48;95564.48;109028;1271;54947;-90
2023/04/14 03:13:26;;;;;;;19.90;15.20;;;;;;;7.11;95.61;95564.80;109064;1267;24240;-90
2023/04/14 03:15:55;;;;;;;21.00;16.20;;;;;;;7.13;95.80;95560.34;109022;1271;22528;-90
2023/04/14 03:18:24;;;;;;;20.00;16.50;;;;;;;7.15;95.66;95555.41;109031;1274;23204;-89
2023/04/14 03:20:55;;;;;;;18.50;15.50;;;;;;;7.18;96.02;95549.43;109026;1269;41759;-89
2023/04/14 03:23:24;;;;;;;21.10;16.90;;;;;;;7.19;95.98;95545.91;109053;1274;22530;-89
2023/04/14 03:25:54;;;;;;;22.50;16.80;;;;;;;7.20;96.09;95546.21;109090;1267;22566;-90
2023/04/14 03:28:27;;;;;;;23.90;17.20;;;;;;;7.20;95.87;95548.41;109056;1274;23311;-90
2023/04/14 03:31:02;;;;;;;21.70;17.80;;;;;;;7.22;96.06;95553.48;109012;1267;104642;-90
2023/04/14 03:33:32;;;;;;;23.00;17.40;;;;;;;7.23;96.01;95553.34;109079;1274;22666;-89
2023/04/14 03:36:02;;;;;;;21.30;15.80;;;;;;;7.25;96.07;95556.16;109030;1275;24252;-90
2023/04/14 03:38:34;;;;;;;23.40;17.20;;;;;;;7.24;96.02;95556.45;109061;1274;24231;-90
2023/04/14 03:41:06;;;;;;;21.70;18.20;;;;;;;7.21;96.06;95557.89;109007;1270;25789;-89
2023/04/14 03:43:35;;;;;;;21.70;18.00;;;;;;;7.19;96.10;95552.70;109075;1274;24202;-90
2023/04/14 03:46:04;;;;;;;;;;;;;;;7.16;96.19;95545.17;109027;1275;22649;-89
2023/04/14 03:48:38;;;;;;;22.00;16.00;;;;;;;7.14;96.52;95546.52;109069;1263;23414;-89
2023/04/14 03:51:09;;;;;;;22.30;17.10;;;;;;;7.14;96.57;95543.27;109105;1270;22536;-90
2023/04/14 03:53:40;;;;;;;21.30;17.10;;;;;;;7.14;96.61;95537.41;109124;1271;22552;-89
2023/04/14 03:56:12;;;;;;;22.20;17.60;;;;;;;7.16;96.74;95534.64;109021;1274;22542;-90
2023/04/14 03:58:46;;;;;;;20.80;17.60;;;;;;;7.18;96.65;95538.41;109015;1266;77548;-89
2023/04/14 04:01:15;;;;;;;23.40;17.40;;;;;;;7.18;96.48;95537.14;109197;1271;23900;-89
2023/04/14 04:03:47;;;;;;;25.90;19.10;;;;;;;7.18;96.66;95539.89;109069;1274;22520;-90
2023/04/14 04:06:22;;;;;;;22.70;19.20;;;;;;;7.20;96.72;95540.10;109081;1274;23351;-90
2023/04/14 04:08:53;;;;;;;22.10;18.20;;;;;;;7.21;96.61;95550.73;109004;1271;123282;-88
2023/04/14 04:11:25;;;;;;;25.60;20.40;;;;;;;7.22;96.65;95556.36;109027;1274;25369;-88
2023/04/14 04:13:56;;;;;;;23.90;20.10;;;;;;;7.22;96.33;95556.19;109040;1274;25461;-88
2023/04/14 04:16:29;;;;;;;25.80;20.20;;;;;;;7.22;96.31;95559.41;109025;1271;22706;-89
2023/04/14 04:19:05;;;;;;;22.00;17.30;;;;;;;7.21;96.37;95557.58;108981;1275;66412;-89
2023/04/14 04:21:35;;;;;;;25.30;21.10;;;;;;;7.22;96.22;95552.78;109071;1274;22560;-90
2023/04/14 04:24:05;;;;;;;24.90;20.50;;;;;;;7.23;96.25;95548.90;109044;1274;22501;-89
2023/04/14 04:26:35;;;;;;;24.50;20.90;;;;;;;7.25;96.22;95543.60;109081;1267;22672;-88
2023/04/14 04:29:05;;;;;;;25.90;21.70;;;;;;;7.30;96.24;95545.07;106991;1269;2657457;-87
2023/04/14 04:31:34;;;;;;;24.50;21.30;;;;;;;7.41;96.32;95546.35;109062;1271;22902;-87
2023/04/14 04:34:05;;;;;;;23.40;20.90;;;;;;;7.56;96.38;95547.27;109032;1271;22502;-88
2023/04/14 04:36:34;;;;;;;26.00;21.40;;;;;;;7.76;96.16;95539.60;109042;1274;22517;-87
2023/04/14 04:39:03;;;;;;;26.40;22.20;;;;;;;7.98;95.96;95541.91;108993;1267;36824;-88
2023/04/14 04:41:31;;;;;;;26.10;21.60;;;;;;;8.27;95.70;95537.66;109064;1271;24191;-88
2023/04/14 04:44:00;;;;;;;28.60;21.50;;;;;;;8.59;95.11;95539.67;109069;1274;22548;-89
2023/04/14 04:46:55;;;;;;;25.90;22.50;;;;;;;9.03;94.70;95543.66;109085;1274;22584;-88
2023/04/14 04:49:27;;;;;;;23.40;20.60;;;;;;;9.67;93.49;95539.35;108840;1271;120808;-87
2023/04/14 04:51:58;;;;;;;23.10;20.60;;;;;;;10.18;91.89;95534.17;109026;1274;22567;-88
2023/04/14 04:54:26;;;;;;;;;;;;;;;10.66;90.60;95528.61;109072;1274;22504;-88
2023/04/14 04:56:56;;;;;;;23.00;20.40;;;;;;;11.07;89.17;95526.05;109005;1275;22523;-87
2023/04/14 04:59:26;;;;;;;22.50;20.00;;;;;;;11.56;88.13;95522.63;108952;1272;85166;-88
2023/04/14 05:01:56;;;;;;;22.50;19.60;;;;;;;12.06;86.46;95523.86;109031;1274;23235;-87
2023/04/14 05:04:25;;;;;;;23.50;20.60;;;;;;;12.49;84.61;95518.58;109081;1274;22525;-87
2023/04/14 05:06:54;;;;;;;22.90;20.50;;;;;;;12.90;82.96;95522.52;109082;1274;24200;-88
2023/04/14 05:09:22;;;;;;;21.20;19.00;;;;;;;13.17;80.75;95522.23;108950;1266;148265;-88
2023/04/14 05:12:06;;;;;;;21.50;18.70;;;;;;;13.26;79.03;95517.22;109015;1274;22575;-87
2023/04/14 05:14:38;;;;;;;21.80;19.50;;;;;;;13.34;77.52;95511.29;109026;1275;25195;-88
2023/04/14 05:17:11;;;;;;;22.10;19.70;;;;;;;13.38;76.40;95501.86;109049;1274;22521;-88
2023/04/14 05:19:42;;;;;;;21.80;19.50;;;;;;;13.65;75.54;95503.07;108885;1270;113444;-87
2023/04/14 05:22:16;;;;;;;21.40;19.10;;;;;;;14.04;74.39;95495.52;109022;1271;22604;-89
2023/04/14 05:25:04;;;;;;;21.70;18.30;;;;;;;14.25;72.02;95496.65;109035;1274;25087;-88
2023/04/14 05:27:34;;;;;;;19.80;17.80;;;;;;;14.73;71.28;95486.86;109078;1274;23255;-89
2023/04/14 05:30:03;;;;;;;20.60;18.50;;;;;;;14.96;67.72;95488.95;108990;1269;75569;-90
2023/04/14 05:32:33;;;;;;;20.40;18.10;;;;;;;14.96;64.29;95490.20;109019;1271;22654;-90
2023/04/14 05:35:09;;;;;;;20.00;17.00;;;;;;;14.45;61.50;95494.64;109060;1274;23801;-90
2023/04/14 05:37:48;;;;;;;20.10;18.00;;;;;;;13.90;62.58;95489.76;109083;1274;22517;-90
2023/04/14 05:40:25;;;;;;;20.30;17.90;;;;;;;13.80;63.17;95491.55;109007;1269;63777;-89
2023/04/14 05:42:54;;;;;;;20.10;18.10;;;;;;;13.77;63.04;95490.04;109069;1274;22650;-90
2023/04/14 05:45:24;;;;;;;21.50;19.20;;;;;;;13.77;64.06;95486.94;109025;1275;23776;-90
2023/04/14 05:47:56;;;;;;;21.20;19.00;;;;;;;13.93;63.23;95484.46;109082;1274;22529;-90
2023/04/14 05:50:44;;;;;;;21.70;19.50;;;;;;;13.89;63.06;95488.74;107506;1269;2069178;-91
2023/04/14 05:53:34;;;;;;;22.70;20.40;;;;;;;14.10;63.07;95490.33;109049;1272;26670;-91
2023/04/14 05:56:11;;;;;;;21.90;19.60;;;;;;;14.37;63.54;95492.12;109052;1271;22606;-90
2023/04/14 05:58:43;;;;;;;21.70;19.40;;;;;;;14.54;62.69;95493.63;108949;1266;118323;-91
2023/04/14 06:01:15;;;;;;;19.90;17.80;;;;;;;14.36;60.92;95494.80;109034;1274;22556;-91
2023/04/14 06:03:44;;;;;;;19.10;17.10;;;;;;;13.77;62.26;95496.98;109054;1274;22522;-90
2023/04/14 06:06:16;;;;;;;20.10;18.10;;;;;;;12.93;63.10;95490.87;109084;1271;22699;-90
2023/04/14 06:08:46;;;;;;;20.10;17.80;;;;;;;12.55;65.40;95488.05;107621;1274;1876762;-90
2023/04/14 06:11:15;;;;;;;19.60;17.50;;;;;;;12.44;65.67;95485.88;109008;1274;22560;-89
2023/04/14 06:13:43;;;;;;;17.80;15.20;;;;;;;12.60;66.65;95483.77;109018;1274;22530;-89
2023/04/14 06:16:25;;;;;;;18.40;16.30;;;;;;;13.36;65.54;95482.44;109049;1269;24225;-90
2023/04/14 06:19:03;;;;;;;17.80;15.90;;;;;;;13.32;64.97;95473.40;108940;1271;81733;-89
2023/04/14 06:21:34;;;;;;;20.10;16.60;;;;;;;13.18;65.34;95461.73;109039;1274;22517;-90
2023/04/14 06:24:05;;;;;;;17.00;14.70;;;;;;;13.04;65.64;95461.67;109057;1274;23817;-89
2023/04/14 06:26:38;;;;;;;15.40;13.10;;;;;;;12.80;65.65;95452.81;109066;1274;22640;-88
2023/04/14 06:29:10;;;;;;;15.20;12.80;;;;;;;12.50;65.88;95442.20;108979;1267;93625;-90
2023/04/14 06:31:45;;;;;;;15.20;13.10;;;;;;;12.23;66.22;95434.95;109091;1274;22521;-88
2023/04/14 06:34:17;;;;;;;16.10;13.70;;;;;;;12.03;66.91;95428.36;109094;1274;22525;-88
2023/04/14 06:36:47;;;;;;;16.60;13.40;;;;;;;11.95;67.47;95426.27;109037;1271;22683;-88
2023/04/14 06:39:19;;;;;;;12.10;10.30;;;;;;;11.92;67.34;95413.69;107681;1269;1850367;-89
2023/04/14 06:41:50;;;;;;;14.40;11.00;;;;;;;11.84;66.93;95414.69;109063;1274;23119;-89
2023/04/14 06:44:20;;;;;;;13.20;10.60;;;;;;;11.81;67.19;95412.13;109065;1274;22574;-89
2023/04/14 06:47:04;;;;;;;14.30;11.30;;;;;;;11.82;67.36;95410.63;109073;1274;22523;-89
2023/04/14 06:49:38;;;;;;;13.00;11.00;;;;;;;11.93;67.45;95410.02;109012;1270;56341;-90
2023/04/14 06:52:06;;;;;;;14.90;12.10;;;;;;;12.08;67.68;95417.35;109038;1269;22783;-90
2023/04/14 06:54:35;;;;;;;13.40;11.80;;;;;;;12.24;66.78;95420.60;109109;1274;22521;-90
2023/04/14 06:57:06;;;;;;;18.00;13.20;;;;;;;12.01;65.96;95428.33;109083;1274;22520;-90
2023/04/14 06:59:34;;;;;;;19.20;14.70;;;;;;;11.76;67.09;95429.38;109026;1270;69794;-91
2023/04/14 07:02:02;;;;;;;18.40;13.70;;;;;;;11.86;67.75;95430.20;109029;1275;22523;-90
2023/04/14 07:04:41;;;;;;;;;;;;;;;;;;;;;
2023/04/14 07:07:10;;;;;;;14.40;10.60;;;;;;;13.20;67.55;95426.56;109055;1268;22658;-91
2023/04/14 07:09:39;;;;;;;13.20;10.80;;;;;;;13.89;65.42;95426.75;107512;1274;2116483;-91
2023/04/14 07:12:13;;;;;;;11.50;9.50;;;;;;;15.19;62.52;95421.77;109085;1271;22535;-91
2023/04/14 07:14:41;;;;;;;10.40;8.50;;;;;;;16.16;55.71;95429.49;109147;1273;24247;-89
2023/04/14 07:17:10;;;;;;;11.30;8.40;;;;;;;16.78;56.99;95419.81;109076;1275;25448;-91
2023/04/14 07:19:40;;;;;;;10.60;8.60;;;;;;;17.73;56.33;95423.00;107685;1271;1857520;-90
2023/04/14 07:22:08;;;;;;;10.50;8.60;;;;;;;18.06;55.38;95423.27;109069;1274;22615;-91
2023/04/14 07:24:37;;;;;;;9.50;7.00;;;;;;;18.50;51.50;95417.54;109133;1269;22525;-91
2023/04/14 07:27:06;;;;;;;8.70;7.40;;;;;;;19.10;48.52;95416.75;109067;1274;22516;-91
2023/04/14 07:29:34;;;;;;;9.70;7.80;;;;;;;19.11;47.81;95418.67;108985;1274;151321;-91
2023/04/14 07:32:02;;;;;;;7.90;6.20;;;;;;;19.48;46.25;95411.67;109119;1274;22514;-91
2023/04/14 07:34:33;;;;;;;8.30;5.90;;;;;;;20.26;47.17;95403.31;109090;1275;27638;-92
2023/04/14 07:37:02;;;;;;;7.20;5.70;;;;;;;20.51;44.97;95403.10;109028;1271;26722;-91
2023/04/14 07:39:32;;;;;;;8.40;5.10;;;;;;;19.83;44.79;95399.90;109010;1268;74516;-91
2023/04/14 07:42:12;;;;;;;7.40;5.20;;;;;;;18.42;44.38;95408.12;109037;1274;22550;-90
2023/04/14 07:44:41;;;;;;;5.60;4.80;;;;;;;17.30;45.90;95412.58;109072;1273;22520;-91
2023/04/14 07:47:10;;;;;;;7.50;5.30;;;;;;;16.50;46.47;95412.39;109088;1274;22553;-91
2023/04/14 07:49:41;;;;;;;6.80;5.50;;;;;;;16.36;47.97;95406.17;109074;1274;87355;-91
2023/04/14 07:52:09;;;;;;;6.90;5.20;;;;;;;16.42;49.07;95399.74;109034;1275;22529;-91
2023/04/14 07:54:39;;;;;;;7.90;5.90;;;;;;;16.57;49.47;95393.92;109107;1272;24189;-90
2023/04/14 07:57:09;;;;;;;6.30;5.30;;;;;;;17.47;48.41;95391.13;109097;1268;22606;-90
2023/04/14 07:59:41;;;;;;;7.20;5.60;;;;;;;17.60;45.60;95392.63;109031;1262;70383;-92
2023/04/14 08:02:10;;;;;;;6.10;5.10;;;;;;;17.06;45.64;95396.29;109041;1274;22554;-89
2023/04/14 08:04:38;;;;;;;6.00;4.90;;;;;;;16.11;46.92;95387.28;109048;1275;22540;-91
2023/04/14 08:07:07;;;;;;;6.50;5.30;;;;;;;15.76;48.08;95387.03;109061;1274;22485;-91
2023/04/14 08:09:35;;;;;;;7.20;5.00;;;;;;;15.99;48.57;95387.27;108999;1271;79992;-90
2023/04/14 08:12:04;;;;;;;8.00;5.40;;;;;;;16.05;48.04;95382.75;109063;1274;22529;-91
2023/04/14 08:14:32;;;;;;;5.60;4.90;;;;;;;15.99;47.61;95384.60;109094;1257;22954;-88
2023/04/14 08:17:01;;;;;;;7.70;5.10;;;;;;;16.23;48.42;95377.95;109107;1263;22529;-91
2023/04/14 08:19:30;;;;;;;6.40;5.00;;;;;;;16.12;47.06;95380.73;109067;1274;44176;-91
2023/04/14 08:21:58;;;;;;;7.10;5.60;;;;;;;15.78;48.28;95384.95;109092;1274;22520;-90
2023/04/14 08:24:38;;;;;;;;;;;;;;;;;;;;;
2023/04/14 08:27:07;;;;;;;8.10;5.80;;;;;;;15.54;49.62;95392.05;109116;1274;22521;-90
2023/04/14 08:29:35;;;;;;;6.60;5.40;;;;;;;15.47;49.05;95395.81;109049;1272;66359;-91
2023/04/14 08:32:06;;;;;;;7.70;5.80;;;;;;;15.46;49.66;95392.82;109097;1273;22635;-91
2023/04/14 08:34:34;;;;;;;6.60;5.40;;;;;;;15.57;49.69;95389.02;109098;1274;23239;-92
2023/04/14 08:37:02;;;;;;;4.40;3.50;;;;;;;15.54;49.73;95386.31;109084;1268;23002;-90
2023/04/14 08:39:31;;;;;;;5.10;3.90;;;;;;;15.25;48.20;95393.66;108966;1274;104485;-90
2023/04/14 08:41:59;;;;;;;5.70;4.20;;;;;;;14.72;48.87;95386.71;109111;1274;22536;-92
2023/04/14 08:44:29;;;;;;;6.80;4.70;;;;;;;14.44;49.40;95389.73;109077;1274;22521;-90
2023/04/14 08:46:57;;;;;;;6.00;4.10;;;;;;;14.19;49.66;95394.52;109105;1273;22610;-91
2023/04/14 08:49:35;;;;;;;7.50;4.40;;;;;;;13.93;50.26;95388.25;109041;1275;47548;-90
2023/04/14 08:52:07;;;;;;;6.10;4.60;;;;;;;13.73;51.36;95389.76;109065;1274;23797;-90
2023/04/14 08:54:36;;;;;;;7.80;4.80;;;;;;;13.54;52.10;95398.23;109049;1275;22683;-89
2023/04/14 08:57:06;;;;;;;7.90;5.60;;;;;;;13.43;52.98;95398.83;109083;1268;22781;-91
2023/04/14 08:59:37;;;;;;;8.10;5.30;;;;;;;13.43;53.38;95397.20;109076;1269;40896;-90
2023/04/14 09:02:08;;;;;;;6.70;5.50;;;;;;;13.42;53.91;95394.77;109092;1272;22548;-89
2023/04/14 09:04:41;;;;;;;9.30;5.70;;;;;;;13.32;53.95;95392.95;109047;1274;22580;-90
2023/04/14 09:07:10;;;;;;;7.60;5.10;;;;;;;13.17;54.69;95391.68;109084;1275;22527;-90
2023/04/14 09:09:41;;;;;;;9.30;5.90;;;;;;;13.13;55.03;95385.54;109054;1271;54793;-90
2023/04/14 09:12:11;;;;;;;7.20;5.30;;;;;;;13.21;55.48;95377.47;109073;1274;26635;-90
2023/04/14 09:14:40;;;;;;;7.30;5.50;;;;;;;13.31;55.53;95385.32;109103;1274;22508;-90
2023/04/14 09:17:09;;;;;;;7.60;5.70;;;;;;;13.46;56.07;95386.97;109092;1267;25269;-90
2023/04/14 09:19:38;;;;;;;6.90;5.00;;;;;;;13.57;55.59;95383.21;109026;1272;63637;-91
2023/04/14 09:22:07;;;;;;;7.10;5.10;;;;;;;13.59;55.75;95386.01;109075;1274;22524;-92
2023/04/14 09:24:36;;;;;;;8.30;5.90;;;;;;;13.58;55.65;95378.90;109104;1274;27032;-90
2023/04/14 09:27:05;;;;;;;9.20;6.20;;;;;;;13.53;55.56;95382.98;109068;1267;22631;-91
2023/04/14 09:29:35;;;;;;;7.70;5.70;;;;;;;13.46;55.68;95377.94;109037;1274;56780;-91
2023/04/14 09:32:03;;;;;;;;;;;;;;;13.41;55.75;95370.69;109140;1267;22541;-92
2023/04/14 09:34:32;;;;;;;8.90;6.10;;;;;;;13.48;56.35;95364.11;109054;1274;22636;-91
2023/04/14 09:37:04;;;;;;;9.00;5.80;;;;;;;13.55;56.35;95358.73;109064;1275;22540;-91
2023/04/14 09:39:33;;;;;;;7.60;4.70;;;;;;;13.63;56.30;95356.42;109039;1274;41022;-90
2023/04/14 09:42:02;;;;;;;8.40;5.50;;;;;;;13.56;55.45;95361.05;109163;1273;22519;-90
2023/04/14 09:44:32;;;;;;;10.60;6.40;;;;;;;13.61;56.50;95359.77;109048;1267;22546;-91
2023/04/14 09:47:03;;;;;;;7.90;5.70;;;;;;;13.89;56.44;95359.11;109080;1267;24247;-90
2023/04/14 09:49:34;;;;;;;6.80;5.40;;;;;;;14.00;55.92;95349.42;109018;1275;64978;-91
2023/04/14 09:52:05;;;;;;;9.20;5.70;;;;;;;14.09;55.20;95344.80;109031;1274;22533;-91
2023/04/14 09:54:33;;;;;;;6.30;4.90;;;;;;;14.03;54.20;95344.42;109086;1274;22519;-90
2023/04/14 09:57:04;;;;;;;6.30;4.80;;;;;;;14.03;54.80;95339.95;109083;1267;24215;-90
2023/04/14 09:59:33;;;;;;;7.70;5.40;;;;;;;14.19;54.89;95332.48;109068;1267;64280;-90
2023/04/14 10:02:03;;;;;;;;;;;;;;;14.20;53.97;95332.56;109109;1267;23249;-89
2023/04/14 10:04:32;;;;;;;10.00;5.30;;;;;;;14.13;54.26;95337.91;109067;1274;22527;-90
2023/04/14 10:07:01;;;;;;;9.70;5.30;;;;;;;14.12;53.98;95337.80;109101;1274;23240;-92
2023/04/14 10:09:35;;;;;;;7.40;5.50;;;;;;;14.08;54.55;95337.38;109017;1271;84795;-91
2023/04/14 10:12:10;;;;;;;6.90;5.30;;;;;;;13.96;54.36;95336.60;109085;1274;22564;-91
2023/04/14 10:14:39;;;;;;;7.40;4.70;;;;;;;13.79;54.73;95332.52;109118;1274;22636;-90
2023/04/14 10:17:08;;;;;;;7.90;5.40;;;;;;;13.77;55.27;95332.35;109076;1267;22641;-89
2023/04/14 10:19:41;;;;;;;9.50;6.30;;;;;;;13.79;54.97;95333.80;109051;1268;87752;-91
2023/04/14 10:22:11;;;;;;;9.20;5.70;;;;;;;13.74;55.67;95337.74;109106;1273;22564;-89
2023/04/14 10:24:41;;;;;;;8.50;5.10;;;;;;;13.72;55.68;95340.80;109073;1272;24257;-90
2023/04/14 10:27:09;;;;;;;7.30;5.40;;;;;;;13.67;55.89;95332.49;109077;1274;24437;-90
2023/04/14 10:29:41;;;;;;;6.10;4.50;;;;;;;13.71;56.55;95333.37;109058;1274;55388;-91
2023/04/14 10:32:14;;;;;;;7.50;5.00;;;;;;;13.70;55.87;95332.36;109098;1274;23007;-91
2023/04/14 10:34:57;;;;;;;9.20;4.60;;;;;;;13.65;55.84;95331.38;109074;1267;22575;-89
2023/04/14 10:37:26;;;;;;;6.70;4.20;;;;;;;13.64;56.62;95327.52;109103;1270;22543;-90
2023/04/14 10:39:59;;;;;;;9.20;5.20;;;;;;;13.70;55.48;95333.34;109028;1267;69747;-90
2023/04/14 10:42:31;;;;;;;8.80;5.10;;;;;;;13.70;56.23;95320.25;109065;1274;23367;-91
2023/04/14 10:45:07;;;;;;;8.80;5.40;;;;;;;13.85;56.37;95314.66;109066;1275;22562;-90
2023/04/14 10:47:40;;;;;;;5.90;5.00;;;;;;;13.99;56.53;95312.33;109067;1267;22553;-91
2023/04/14 10:50:12;;;;;;;8.00;5.00;;;;;;;14.15;56.54;95313.84;109008;1272;52846;-91
2023/04/14 10:52:53;;;;;;;6.10;4.40;;;;;;;14.33;56.18;95309.36;109112;1270;22637;-90
2023/04/14 10:55:26;;;;;;;5.60;4.20;;;;;;;14.57;56.26;95312.36;109072;1274;22526;-89
2023/04/14 10:58:05;;;;;;;9.00;4.50;;;;;;;14.81;56.06;95315.66;109094;1274;22551;-90
2023/04/14 11:00:48;;;;;;;7.40;4.80;;;;;;;14.90;54.77;95313.27;104440;1275;5308249;-91
2023/04/14 11:03:17;;;;;;;6.90;4.60;;;;;;;14.90;54.43;95307.80;109031;1274;22588;-90
2023/04/14 11:05:52;;;;;;;7.50;4.70;;;;;;;14.78;53.80;95299.72;109092;1270;22528;-89
2023/04/14 11:08:26;;;;;;;7.00;4.70;;;;;;;14.81;54.81;95300.29;109107;1274;22556;-90
2023/04/14 11:11:02;;;;;;;5.50;4.10;;;;;;;14.94;54.71;95295.31;108996;1267;71943;-90
2023/04/14 11:13:32;;;;;;;6.00;4.30;;;;;;;15.01;52.76;95287.57;109100;1268;22537;-90
2023/04/14 11:16:02;;;;;;;;;;;;;;;14.93;53.06;95287.59;109064;1274;22487;-89
2023/04/14 11:18:36;;;;;;;6.10;4.10;;;;;;;14.99;53.48;95287.45;109082;1267;22531;-90
2023/04/14 11:21:07;;;;;;;4.90;3.60;;;;;;;15.13;53.56;95291.20;109058;1270;87391;-90
2023/04/14 11:23:37;;;;;;;5.60;3.70;;;;;;;15.18;53.12;95292.23;109070;1270;22542;-89
2023/04/14 11:26:07;;;;;;;4.20;3.80;;;;;;;15.24;52.98;95291.34;109116;1268;22657;-90
2023/04/14 11:28:37;;;;;;;4.70;3.80;;;;;;;15.28;53.01;95283.43;109076;1274;24249;-91
2023/04/14 11:31:07;;;;;;;4.50;3.80;;;;;;;15.28;52.53;95276.17;109025;1274;114926;-89
2023/04/14 11:33:43;;;;;;;4.40;3.80;;;;;;;15.29;52.73;95271.95;109083;1273;26443;-88
2023/04/14 11:36:17;;;;;;;4.80;3.80;;;;;;;15.37;52.71;95271.17;109049;1273;22549;-90
2023/04/14 11:38:46;;;;;;;4.60;3.20;;;;;;;15.47;52.55;95269.44;109034;1267;22524;-90
2023/04/14 11:41:21;;;;;;;6.90;4.30;;;;;;;15.53;52.00;95269.08;109003;1273;88290;-88